createdAt,value
2023-05-05T00:01:03.524Z,60.82
2023-05-05T00:03:34.329Z,60.21
2023-05-05T00:06:02.287Z,59.99
2023-05-05T00:08:30.403Z,60.40
2023-05-05T00:10:58.299Z,60.44
2023-05-05T00:13:26.186Z,59.94
2023-05-05T00:15:54.547Z,60.15
2023-05-05T00:18:22.451Z,60.33
2023-05-05T00:20:52.157Z,60.12
2023-05-05T00:23:20.413Z,60.03
2023-05-05T00:25:48.561Z,59.76
2023-05-05T00:28:16.420Z,60.22
2023-05-05T00:30:44.563Z,60.31
2023-05-05T00:33:13.596Z,59.89
2023-05-05T00:35:41.721Z,59.95
2023-05-05T00:38:11.331Z,60.12
2023-05-05T00:40:39.202Z,59.65
2023-05-05T00:43:07.555Z,59.82
2023-05-05T00:45:37.263Z,60.69
2023-05-05T00:48:05.699Z,59.85
2023-05-05T00:50:33.764Z,60.15
2023-05-05T00:53:02.865Z,60.56
2023-05-05T00:55:33.799Z,60.05
2023-05-05T00:58:02.669Z,60.03
2023-05-05T01:00:30.990Z,60.00
2023-05-05T01:02:58.955Z,60.49
2023-05-05T01:05:28.239Z,60.54
2023-05-05T01:08:07.064Z,60.40
2023-05-05T01:10:39.809Z,60.35
2023-05-05T01:13:26.952Z,60.77
2023-05-05T01:15:59.437Z,60.93
2023-05-05T01:18:33.531Z,61.14
2023-05-05T01:21:08.115Z,60.91
2023-05-05T01:23:49.646Z,61.04
2023-05-05T01:26:39.084Z,61.12
2023-05-05T01:29:31.278Z,60.99
2023-05-05T01:32:02.647Z,61.28
2023-05-05T01:34:35.311Z,61.27
2023-05-05T01:37:08.245Z,61.14
2023-05-05T01:39:37.093Z,61.44
2023-05-05T01:42:07.805Z,61.71
2023-05-05T01:44:37.865Z,61.28
2023-05-05T01:47:07.490Z,61.01
2023-05-05T01:49:36.167Z,61.53
2023-05-05T01:52:05.194Z,61.13
2023-05-05T01:54:34.780Z,61.66
2023-05-05T01:57:04.698Z,61.65
2023-05-05T01:59:33.409Z,61.87
2023-05-05T02:02:02.911Z,61.87
2023-05-05T02:04:33.131Z,61.32
2023-05-05T02:07:02.549Z,61.67
2023-05-05T02:09:33.641Z,61.63
2023-05-05T02:12:03.040Z,62.03
2023-05-05T02:14:31.645Z,61.86
2023-05-05T02:16:59.600Z,62.06
2023-05-05T02:19:30.933Z,62.15
2023-05-05T02:22:00.279Z,62.16
2023-05-05T02:24:28.618Z,61.63
2023-05-05T02:26:57.339Z,61.68
2023-05-05T02:29:29.901Z,62.07
2023-05-05T02:32:03.280Z,61.91
2023-05-05T02:34:36.398Z,61.92
2023-05-05T02:37:08.881Z,61.67
2023-05-05T02:39:43.520Z,61.60
2023-05-05T02:42:17.522Z,61.85
2023-05-05T02:44:46.625Z,61.88
2023-05-05T02:47:15.667Z,61.94
2023-05-05T02:49:44.074Z,61.34
2023-05-05T02:52:13.299Z,61.62
2023-05-05T02:54:42.830Z,61.29
2023-05-05T02:57:19.709Z,61.08
2023-05-05T02:59:58.381Z,61.40
2023-05-05T03:02:29.447Z,61.43
2023-05-05T03:05:02.066Z,61.18
2023-05-05T03:07:39.394Z,61.67
2023-05-05T03:10:09.741Z,61.42
2023-05-05T03:12:50.897Z,61.80
2023-05-05T03:15:27.242Z,61.78
2023-05-05T03:17:55.510Z,61.49
2023-05-05T03:20:24.117Z,61.87
2023-05-05T03:22:54.781Z,61.58
2023-05-05T03:25:23.216Z,61.63
2023-05-05T03:27:51.058Z,61.82
2023-05-05T03:30:21.415Z,61.79
2023-05-05T03:32:52.624Z,61.99
2023-05-05T03:35:21.218Z,61.93
2023-05-05T03:37:49.218Z,61.91
2023-05-05T03:40:22.048Z,61.63
2023-05-05T03:42:53.349Z,62.26
2023-05-05T03:45:21.516Z,62.02
2023-05-05T03:47:49.416Z,62.52
2023-05-05T03:50:17.568Z,62.39
2023-05-05T03:52:45.616Z,62.12
2023-05-05T03:55:13.557Z,62.37
2023-05-05T03:57:42.798Z,62.74
2023-05-05T04:00:11.865Z,62.27
2023-05-05T04:02:43.352Z,62.84
2023-05-05T04:05:13.720Z,62.78
2023-05-05T04:07:41.621Z,63.06
2023-05-05T04:10:10.439Z,62.69
2023-05-05T04:12:39.215Z,62.86
2023-05-05T04:15:10.235Z,63.03
2023-05-05T04:17:38.640Z,62.68
2023-05-05T04:20:08.277Z,62.73
2023-05-05T04:22:36.722Z,62.64
2023-05-05T04:25:06.622Z,62.99
2023-05-05T04:27:35.168Z,62.38
2023-05-05T04:30:03.131Z,62.53
2023-05-05T04:32:34.380Z,62.92
2023-05-05T04:35:02.227Z,62.39
2023-05-05T04:37:31.290Z,62.37
2023-05-05T04:40:00.229Z,62.21
2023-05-05T04:42:28.752Z,62.56
2023-05-05T04:44:56.697Z,62.51
2023-05-05T04:47:24.915Z,62.21
2023-05-05T04:49:55.336Z,61.94
2023-05-05T04:52:23.813Z,61.34
2023-05-05T04:54:52.616Z,61.71
2023-05-05T04:57:20.531Z,61.66
2023-05-05T04:59:48.503Z,61.02
2023-05-05T05:02:16.416Z,61.33
2023-05-05T05:04:44.294Z,60.85
2023-05-05T05:07:14.963Z,61.10
2023-05-05T05:09:42.875Z,60.86
2023-05-05T05:12:10.747Z,60.69
2023-05-05T05:14:38.777Z,60.20
2023-05-05T05:17:06.718Z,60.57
2023-05-05T05:19:35.285Z,60.45
2023-05-05T05:22:03.774Z,60.40
2023-05-05T05:24:36.292Z,59.70
2023-05-05T05:27:09.776Z,59.65
2023-05-05T05:29:39.295Z,59.32
2023-05-05T05:32:07.173Z,58.89
2023-05-05T05:34:35.702Z,58.36
2023-05-05T05:37:04.729Z,57.85
2023-05-05T05:39:32.637Z,57.46
2023-05-05T05:42:03.595Z,57.80
2023-05-05T05:44:32.726Z,57.27
2023-05-05T05:47:00.751Z,57.18
2023-05-05T05:49:28.855Z,56.77
2023-05-05T05:51:56.898Z,55.93
2023-05-05T05:54:25.362Z,55.98
2023-05-05T05:56:53.407Z,55.39
2023-05-05T05:59:23.589Z,54.62
2023-05-05T06:01:51.564Z,54.57
2023-05-05T06:04:19.597Z,54.52
2023-05-05T06:06:47.621Z,53.93
2023-05-05T06:09:15.545Z,52.89
2023-05-05T06:11:43.466Z,52.73
2023-05-05T06:14:11.436Z,51.70
2023-05-05T06:16:40.759Z,51.59
2023-05-05T06:19:12.540Z,51.36
2023-05-05T06:21:40.784Z,51.50
2023-05-05T06:24:08.702Z,51.16
2023-05-05T06:26:36.899Z,50.58
2023-05-05T06:29:05.000Z,51.01
2023-05-05T06:31:32.959Z,51.49
2023-05-05T06:34:02.224Z,51.33
2023-05-05T06:36:30.086Z,50.97
2023-05-05T06:38:58.095Z,50.30
2023-05-05T06:41:26.018Z,49.68
2023-05-05T06:43:53.784Z,49.56
2023-05-05T06:46:21.672Z,49.26
2023-05-05T06:48:49.557Z,49.57
2023-05-05T06:51:18.846Z,50.04
2023-05-05T06:53:46.689Z,49.33
2023-05-05T06:56:14.470Z,47.96
2023-05-05T06:58:42.529Z,47.47
2023-05-05T07:01:10.564Z,46.77
2023-05-05T07:03:38.451Z,45.66
2023-05-05T07:06:06.552Z,45.44
2023-05-05T07:08:35.759Z,45.06
2023-05-05T07:11:03.682Z,44.08
2023-05-05T07:13:31.687Z,44.53
2023-05-05T07:15:59.608Z,44.02
2023-05-05T07:18:27.628Z,43.96
2023-05-05T07:20:55.440Z,43.96
2023-05-05T07:23:23.274Z,45.44
2023-05-05T07:25:52.645Z,45.92
2023-05-05T07:28:22.277Z,45.80
2023-05-05T07:30:50.902Z,45.80
2023-05-05T07:33:19.457Z,45.46
2023-05-05T07:35:47.563Z,45.21
2023-05-05T07:38:15.365Z,44.87
2023-05-05T07:40:43.242Z,44.51
2023-05-05T07:43:12.503Z,43.33
2023-05-05T07:45:40.449Z,39.91
2023-05-05T07:48:08.479Z,39.63
2023-05-05T07:50:36.406Z,38.76
2023-05-05T07:53:13.657Z,36.76
2023-05-05T07:55:42.774Z,34.74
2023-05-05T07:58:12.089Z,35.98
2023-05-05T08:00:40.191Z,36.00
2023-05-05T08:03:11.370Z,34.04
2023-05-05T08:05:40.812Z,34.45
2023-05-05T08:08:08.757Z,33.04
2023-05-05T08:10:37.275Z,31.94
2023-05-05T08:13:05.231Z,32.35
2023-05-05T08:15:34.589Z,32.92
2023-05-05T08:18:02.586Z,32.34
2023-05-05T08:20:30.607Z,32.83
2023-05-05T08:22:58.538Z,33.77
2023-05-05T08:25:27.361Z,34.10
2023-05-05T08:27:55.623Z,33.36
2023-05-05T08:30:29.096Z,33.81
2023-05-05T08:32:58.972Z,32.48
2023-05-05T08:35:27.128Z,31.86
2023-05-05T08:37:56.695Z,32.33
2023-05-05T08:40:31.116Z,32.93
2023-05-05T08:42:59.008Z,31.02
2023-05-05T08:45:27.428Z,31.63
2023-05-05T08:47:56.304Z,31.91
2023-05-05T08:50:27.478Z,32.47
2023-05-05T08:52:59.706Z,32.35
2023-05-05T08:55:28.356Z,32.56
2023-05-05T08:57:58.012Z,31.09
2023-05-05T09:00:26.977Z,31.44
2023-05-05T09:02:56.125Z,32.72
2023-05-05T09:05:24.310Z,32.82
2023-05-05T09:07:53.796Z,31.03
2023-05-05T09:10:21.692Z,30.78
2023-05-05T09:12:51.437Z,32.05
2023-05-05T09:15:19.445Z,32.86
2023-05-05T09:17:48.078Z,32.65
2023-05-05T09:20:16.129Z,31.56
2023-05-05T09:22:45.711Z,31.84
2023-05-05T09:25:16.328Z,32.07
2023-05-05T09:27:46.308Z,31.88
2023-05-05T09:30:17.177Z,32.40
2023-05-05T09:32:46.461Z,32.05
2023-05-05T09:35:14.548Z,31.32
2023-05-05T09:37:42.674Z,31.25
2023-05-05T09:40:11.695Z,31.66
2023-05-05T09:42:41.429Z,30.67
2023-05-05T09:45:26.397Z,30.13
2023-05-05T09:47:59.141Z,31.04
2023-05-05T09:50:30.685Z,29.75
2023-05-05T09:53:02.916Z,30.78
2023-05-05T09:55:31.964Z,30.73
2023-05-05T09:58:18.277Z,31.54
2023-05-05T10:00:46.479Z,31.90
2023-05-05T10:03:14.480Z,31.32
2023-05-05T10:05:50.545Z,32.04
2023-05-05T10:08:19.839Z,31.74
2023-05-05T10:10:50.655Z,32.49
2023-05-05T10:13:20.637Z,33.49
2023-05-05T10:15:50.876Z,34.74
2023-05-05T10:18:21.497Z,34.34
2023-05-05T10:20:51.203Z,34.69
2023-05-05T10:23:20.934Z,35.24
2023-05-05T10:25:53.092Z,34.75
2023-05-05T10:28:28.301Z,35.08
2023-05-05T10:30:58.122Z,33.45
2023-05-05T10:33:32.578Z,32.67
2023-05-05T10:36:03.059Z,31.49
2023-05-05T10:38:31.619Z,30.55
2023-05-05T10:41:00.708Z,29.52
2023-05-05T10:43:30.802Z,29.99
2023-05-05T10:45:59.505Z,31.27
2023-05-05T10:48:35.881Z,31.67
2023-05-05T10:51:18.820Z,31.28
2023-05-05T10:53:58.055Z,31.98
2023-05-05T10:56:29.196Z,32.70
2023-05-05T10:59:00.610Z,33.29
2023-05-05T11:01:31.416Z,33.00
2023-05-05T11:04:21.568Z,31.90
2023-05-05T11:07:24.376Z,31.50
2023-05-05T11:09:56.856Z,32.99
2023-05-05T11:12:24.772Z,32.99
2023-05-05T11:15:29.813Z,33.55
2023-05-05T11:17:59.812Z,33.62
2023-05-05T11:21:01.175Z,33.63
2023-05-05T11:23:29.691Z,33.30
2023-05-05T11:25:58.096Z,33.21
2023-05-05T11:28:29.767Z,34.33
2023-05-05T11:31:17.149Z,34.15
2023-05-05T11:33:46.605Z,35.59
2023-05-05T11:36:15.822Z,34.55
2023-05-05T11:39:06.200Z,34.12
2023-05-05T11:42:10.412Z,33.48
2023-05-05T11:44:38.931Z,33.31
2023-05-05T11:47:25.866Z,33.67
2023-05-05T11:49:56.052Z,34.11
2023-05-05T11:52:26.998Z,34.38
2023-05-05T11:54:55.067Z,34.20
2023-05-05T11:57:29.033Z,34.18
2023-05-05T11:59:58.374Z,34.39
2023-05-05T12:02:27.717Z,33.88
2023-05-05T12:04:58.254Z,33.83
2023-05-05T12:07:28.117Z,33.21
2023-05-05T12:09:56.317Z,33.77
2023-05-05T12:12:35.823Z,33.63
2023-05-05T12:15:05.206Z,33.60
2023-05-05T12:17:42.496Z,33.67
2023-05-05T12:20:13.490Z,34.11
2023-05-05T12:22:41.663Z,33.45
2023-05-05T12:25:10.132Z,33.54
2023-05-05T12:27:38.587Z,33.32
2023-05-05T12:30:15.147Z,33.31
2023-05-05T12:32:44.556Z,32.57
2023-05-05T12:35:14.654Z,33.55
2023-05-05T12:37:43.582Z,32.68
2023-05-05T12:40:48.373Z,33.07
2023-05-05T12:43:30.154Z,32.49
2023-05-05T12:46:08.858Z,32.60
2023-05-05T12:48:38.952Z,32.71
2023-05-05T12:51:16.671Z,31.49
2023-05-05T12:53:44.992Z,31.77
2023-05-05T12:56:32.333Z,31.64
2023-05-05T12:59:00.269Z,32.79
2023-05-05T13:01:28.463Z,32.88
2023-05-05T13:04:07.242Z,32.86
2023-05-05T13:06:37.636Z,31.85
2023-05-05T13:09:05.928Z,32.91
2023-05-05T13:11:38.273Z,31.34
2023-05-05T13:14:07.705Z,31.91
2023-05-05T13:16:35.886Z,32.10
2023-05-05T13:19:03.708Z,31.35
2023-05-05T13:21:31.547Z,31.62
2023-05-05T13:24:16.219Z,31.92
2023-05-05T13:26:46.915Z,32.21
2023-05-05T13:29:16.317Z,33.52
2023-05-05T13:31:44.467Z,34.04
2023-05-05T13:34:12.529Z,32.97
2023-05-05T13:36:40.387Z,31.62
2023-05-05T13:39:09.821Z,32.14
2023-05-05T13:41:37.620Z,32.52
2023-05-05T13:44:05.796Z,33.13
2023-05-05T13:46:33.862Z,33.04
2023-05-05T13:49:01.758Z,33.58
2023-05-05T13:51:30.446Z,32.84
2023-05-05T13:53:58.236Z,32.85
2023-05-05T13:56:27.727Z,33.53
2023-05-05T13:58:55.683Z,33.89
2023-05-05T14:01:23.634Z,34.26
2023-05-05T14:03:51.695Z,34.49
2023-05-05T14:06:19.561Z,33.87
2023-05-05T14:08:47.428Z,34.25
2023-05-05T14:11:17.077Z,33.88
2023-05-05T14:13:47.533Z,34.23
2023-05-05T14:16:15.756Z,33.76
2023-05-05T14:18:43.692Z,34.00
2023-05-05T14:21:12.132Z,34.75
2023-05-05T14:23:40.074Z,34.03
2023-05-05T14:26:08.857Z,33.04
2023-05-05T14:28:36.974Z,33.15
2023-05-05T14:31:06.384Z,33.57
2023-05-05T14:33:34.204Z,33.78
2023-05-05T14:36:02.061Z,33.96
2023-05-05T14:38:29.952Z,32.99
2023-05-05T14:40:57.870Z,33.33
2023-05-05T14:43:25.760Z,33.71
2023-05-05T14:45:53.694Z,34.33
2023-05-05T14:48:22.976Z,33.96
2023-05-05T14:50:50.889Z,33.32
2023-05-05T14:53:19.803Z,33.64
2023-05-05T14:55:47.675Z,34.23
2023-05-05T14:58:15.478Z,33.80
2023-05-05T15:00:43.374Z,34.90
2023-05-05T15:03:11.280Z,35.79
2023-05-05T15:05:40.781Z,35.78
2023-05-05T15:08:08.665Z,36.04
2023-05-05T15:10:36.553Z,35.98
2023-05-05T15:13:04.513Z,35.80
2023-05-05T15:15:32.417Z,35.82
2023-05-05T15:18:00.289Z,36.09
2023-05-05T15:20:28.294Z,35.25
2023-05-05T15:22:57.428Z,35.42
2023-05-05T15:25:25.633Z,35.27
2023-05-05T15:27:53.752Z,34.72
2023-05-05T15:30:21.644Z,34.67
2023-05-05T15:32:49.440Z,34.24
2023-05-05T15:35:17.449Z,34.26
2023-05-05T15:37:45.304Z,34.73
2023-05-05T15:40:14.697Z,34.64
2023-05-05T15:42:42.573Z,34.84
2023-05-05T15:45:12.320Z,34.61
2023-05-05T15:47:40.253Z,34.68
2023-05-05T15:50:09.009Z,34.58
2023-05-05T15:52:36.899Z,35.34
2023-05-05T15:55:05.210Z,35.37
2023-05-05T15:57:34.503Z,35.17
2023-05-05T16:00:02.501Z,36.15
2023-05-05T16:02:35.484Z,36.64
2023-05-05T16:05:03.519Z,37.28
2023-05-05T16:07:31.802Z,37.38
2023-05-05T16:09:59.665Z,37.81
2023-05-05T16:12:27.485Z,38.55
2023-05-05T16:14:56.623Z,38.51
2023-05-05T16:17:24.477Z,38.86
2023-05-05T16:19:52.327Z,38.74
2023-05-05T16:22:20.905Z,38.44
2023-05-05T16:24:48.708Z,38.44
2023-05-05T16:27:16.867Z,38.46
2023-05-05T16:29:44.634Z,38.32
2023-05-05T16:32:13.780Z,39.04
2023-05-05T16:34:41.725Z,38.92
2023-05-05T16:37:09.775Z,39.36
2023-05-05T16:39:40.115Z,39.38
2023-05-05T16:42:08.249Z,39.34
2023-05-05T16:44:36.167Z,39.61
2023-05-05T16:47:04.000Z,40.05
2023-05-05T16:49:33.311Z,40.29
2023-05-05T16:52:01.184Z,40.48
2023-05-05T16:54:29.041Z,40.62
2023-05-05T16:56:58.112Z,40.86
2023-05-05T16:59:26.049Z,40.86
2023-05-05T17:01:53.979Z,40.85
2023-05-05T17:04:21.825Z,40.87
2023-05-05T17:06:51.319Z,41.01
2023-05-05T17:09:19.183Z,40.98
2023-05-05T17:11:47.008Z,41.36
2023-05-05T17:14:14.858Z,41.48
2023-05-05T17:16:42.888Z,41.54
2023-05-05T17:19:10.800Z,41.65
2023-05-05T17:21:38.755Z,41.57
2023-05-05T17:24:09.023Z,41.81
2023-05-05T17:26:36.844Z,41.88
2023-05-05T17:29:04.747Z,42.16
2023-05-05T17:31:32.676Z,42.37
2023-05-05T17:34:00.602Z,42.46
2023-05-05T17:36:28.518Z,42.85
2023-05-05T17:38:56.353Z,42.86
2023-05-05T17:41:26.960Z,43.45
2023-05-05T17:44:02.834Z,43.88
2023-05-05T17:46:30.716Z,43.85
2023-05-05T17:48:58.638Z,44.54
2023-05-05T17:51:27.308Z,45.04
2023-05-05T17:53:55.166Z,45.30
2023-05-05T17:56:23.085Z,45.65
2023-05-05T17:58:52.427Z,46.04
2023-05-05T18:01:23.494Z,46.69
2023-05-05T18:03:51.434Z,46.78
2023-05-05T18:06:19.550Z,46.71
2023-05-05T18:08:47.579Z,47.07
2023-05-05T18:11:15.446Z,47.11
2023-05-05T18:13:43.708Z,47.41
2023-05-05T18:16:15.322Z,48.11
2023-05-05T18:18:43.374Z,48.08
2023-05-05T18:21:12.200Z,48.25
2023-05-05T18:23:40.436Z,48.76
2023-05-05T18:26:09.978Z,48.57
2023-05-05T18:28:38.201Z,48.92
2023-05-05T18:31:06.191Z,48.99
2023-05-05T18:33:35.608Z,48.96
2023-05-05T18:36:04.056Z,49.04
2023-05-05T18:38:32.192Z,49.37
2023-05-05T18:41:00.060Z,49.59
2023-05-05T18:43:28.023Z,49.67
2023-05-05T18:45:55.938Z,49.50
2023-05-05T18:48:23.766Z,49.91
2023-05-05T18:50:53.000Z,49.69
2023-05-05T18:53:21.416Z,50.17
2023-05-05T18:55:49.339Z,49.95
2023-05-05T18:58:17.581Z,50.29
2023-05-05T19:00:45.578Z,50.32
2023-05-05T19:03:13.499Z,50.46
2023-05-05T19:05:42.011Z,50.49
2023-05-05T19:08:11.297Z,50.19
2023-05-05T19:10:39.274Z,50.15
2023-05-05T19:13:07.791Z,50.54
2023-05-05T19:15:35.971Z,50.31
2023-05-05T19:18:05.522Z,50.43
2023-05-05T19:20:33.690Z,50.55
2023-05-05T19:23:03.802Z,50.76
2023-05-05T19:25:33.055Z,50.70
2023-05-05T19:28:01.004Z,51.05
2023-05-05T19:30:28.879Z,51.14
2023-05-05T19:32:56.727Z,51.04
2023-05-05T19:35:24.635Z,50.98
2023-05-05T19:37:52.551Z,50.97
2023-05-05T19:40:20.632Z,51.24
2023-05-05T19:42:49.885Z,51.32
2023-05-05T19:45:17.958Z,52.36
2023-05-05T19:47:46.155Z,53.98
2023-05-05T19:50:15.123Z,54.14
2023-05-05T19:52:42.952Z,55.03
2023-05-05T19:55:12.883Z,55.51
2023-05-05T19:57:41.069Z,55.54
2023-05-05T20:00:11.922Z,54.35
2023-05-05T20:02:39.905Z,54.52
2023-05-05T20:05:08.331Z,53.98
2023-05-05T20:07:36.164Z,53.14
2023-05-05T20:10:06.939Z,53.47
2023-05-05T20:12:35.048Z,53.51
2023-05-05T20:15:03.140Z,52.95
2023-05-05T20:17:32.350Z,53.33
2023-05-05T20:20:00.213Z,53.33
2023-05-05T20:22:28.141Z,53.10
2023-05-05T20:24:56.044Z,53.01
2023-05-05T20:27:24.537Z,53.05
2023-05-05T20:29:53.819Z,52.60
2023-05-05T20:32:21.648Z,53.15
2023-05-05T20:34:50.814Z,52.78
2023-05-05T20:37:18.852Z,52.79
2023-05-05T20:39:47.248Z,53.32
2023-05-05T20:42:15.139Z,53.04
2023-05-05T20:44:43.087Z,52.98
2023-05-05T20:47:11.388Z,52.96
2023-05-05T20:49:39.258Z,53.42
2023-05-05T20:52:08.658Z,53.45
2023-05-05T20:54:36.495Z,53.47
2023-05-05T20:57:04.390Z,53.13
2023-05-05T20:59:32.311Z,53.25
2023-05-05T21:02:00.226Z,53.27
2023-05-05T21:04:28.247Z,53.26
2023-05-05T21:06:57.238Z,53.48
2023-05-05T21:09:26.732Z,53.60
2023-05-05T21:11:54.704Z,54.00
2023-05-05T21:14:23.285Z,53.84
2023-05-05T21:16:51.247Z,53.74
2023-05-05T21:19:19.184Z,53.41
2023-05-05T21:21:47.002Z,53.49
2023-05-05T21:24:14.829Z,53.82
2023-05-05T21:26:44.681Z,53.85
2023-05-05T21:29:12.679Z,54.26
2023-05-05T21:31:40.581Z,54.18
2023-05-05T21:34:08.406Z,53.87
2023-05-05T21:36:36.781Z,54.02
2023-05-05T21:39:04.771Z,53.91
2023-05-05T21:41:32.725Z,54.36
2023-05-05T21:44:02.302Z,54.13
2023-05-05T21:46:30.228Z,54.14
2023-05-05T21:48:58.198Z,54.24
2023-05-05T21:51:27.200Z,54.52
2023-05-05T21:53:55.249Z,54.20
2023-05-05T21:56:23.109Z,54.40
2023-05-05T21:58:50.918Z,54.56
2023-05-05T22:01:20.276Z,55.43
2023-05-05T22:03:48.247Z,55.43
2023-05-05T22:06:17.336Z,55.20
2023-05-05T22:08:45.210Z,54.80
2023-05-05T22:11:13.099Z,54.97
2023-05-05T22:13:41.128Z,54.94
2023-05-05T22:16:10.049Z,55.16
2023-05-05T22:18:39.270Z,55.40
2023-05-05T22:21:07.359Z,55.35
2023-05-05T22:23:35.297Z,55.43
2023-05-05T22:26:03.159Z,56.04
2023-05-05T22:28:30.997Z,55.83
2023-05-05T22:30:58.947Z,56.18
2023-05-05T22:33:27.155Z,56.51
2023-05-05T22:35:56.342Z,57.02
2023-05-05T22:38:24.305Z,56.99
2023-05-05T22:40:52.183Z,57.09
2023-05-05T22:43:20.054Z,57.50
2023-05-05T22:45:48.014Z,57.71
2023-05-05T22:48:16.040Z,57.52
2023-05-05T22:50:43.935Z,57.46
2023-05-05T22:53:13.159Z,58.27
2023-05-05T22:55:41.201Z,58.65
2023-05-05T22:58:09.081Z,59.14
2023-05-05T23:00:36.979Z,60.78
2023-05-05T23:03:05.342Z,60.99
2023-05-05T23:05:34.347Z,62.31
2023-05-05T23:08:02.373Z,61.78
2023-05-05T23:10:31.587Z,61.05
2023-05-05T23:12:59.490Z,62.98
2023-05-05T23:15:27.514Z,63.95
2023-05-05T23:17:55.386Z,63.91
2023-05-05T23:20:23.435Z,66.48
2023-05-05T23:22:51.252Z,68.79
2023-05-05T23:25:19.776Z,68.96
2023-05-05T23:27:48.962Z,71.21
2023-05-05T23:30:16.978Z,72.26
2023-05-05T23:32:44.985Z,73.40
2023-05-05T23:35:13.048Z,73.58
2023-05-05T23:37:40.930Z,74.22
2023-05-05T23:40:09.928Z,73.16
2023-05-05T23:42:37.750Z,72.63
2023-05-05T23:45:08.206Z,72.95
2023-05-05T23:47:36.308Z,74.40
2023-05-05T23:50:04.717Z,74.51
2023-05-05T23:52:32.650Z,76.03
2023-05-05T23:55:00.447Z,75.62
2023-05-05T23:57:28.317Z,75.74
2023-05-05T23:59:56.150Z,77.54
